sensor_id;sensor_type;location;lat;lon;timestamp;temperature;humidity
57390;DHT22;43217;52.694;6.214;2023-04-21T00:00:59;9.50;99.90
57390;DHT22;43217;52.694;6.214;2023-04-21T00:03:26;9.50;99.90
57390;DHT22;43217;52.694;6.214;2023-04-21T00:05:54;9.50;99.90
57390;DHT22;43217;52.694;6.214;2023-04-21T00:08:20;9.50;99.90
57390;DHT22;43217;52.694;6.214;2023-04-21T00:10:46;9.50;99.90
57390;DHT22;43217;52.694;6.214;2023-04-21T00:13:12;9.40;99.90
57390;DHT22;43217;52.694;6.214;2023-04-21T00:15:38;9.40;99.90
57390;DHT22;43217;52.694;6.214;2023-04-21T00:18:04;9.40;99.90
57390;DHT22;43217;52.694;6.214;2023-04-21T00:20:30;9.40;99.90
57390;DHT22;43217;52.694;6.214;2023-04-21T00:22:57;9.30;99.90
57390;DHT22;43217;52.694;6.214;2023-04-21T00:25:23;9.30;99.90
57390;DHT22;43217;52.694;6.214;2023-04-21T00:27:49;9.30;99.90
57390;DHT22;43217;52.694;6.214;2023-04-21T00:30:15;9.30;99.90
57390;DHT22;43217;52.694;6.214;2023-04-21T00:32:41;9.30;99.90
57390;DHT22;43217;52.694;6.214;2023-04-21T00:35:08;9.30;99.90
57390;DHT22;43217;52.694;6.214;2023-04-21T00:37:33;9.30;99.90
57390;DHT22;43217;52.694;6.214;2023-04-21T00:39:59;9.30;99.90
57390;DHT22;43217;52.694;6.214;2023-04-21T00:42:25;9.20;99.90
57390;DHT22;43217;52.694;6.214;2023-04-21T00:44:50;9.30;99.90
57390;DHT22;43217;52.694;6.214;2023-04-21T00:47:17;9.20;99.90
57390;DHT22;43217;52.694;6.214;2023-04-21T00:49:43;9.20;99.90
57390;DHT22;43217;52.694;6.214;2023-04-21T00:52:08;9.20;99.90
57390;DHT22;43217;52.694;6.214;2023-04-21T00:54:35;9.20;99.90
57390;DHT22;43217;52.694;6.214;2023-04-21T00:57:01;9.20;99.90
57390;DHT22;43217;52.694;6.214;2023-04-21T00:59:28;9.20;99.90
57390;DHT22;43217;52.694;6.214;2023-04-21T01:01:54;9.10;99.90
57390;DHT22;43217;52.694;6.214;2023-04-21T01:04:20;9.10;99.90
57390;DHT22;43217;52.694;6.214;2023-04-21T01:06:45;9.10;99.90
57390;DHT22;43217;52.694;6.214;2023-04-21T01:09:11;9.10;99.90
57390;DHT22;43217;52.694;6.214;2023-04-21T01:11:37;9.10;99.90
57390;DHT22;43217;52.694;6.214;2023-04-21T01:14:04;9.10;99.90
57390;DHT22;43217;52.694;6.214;2023-04-21T01:16:30;9.10;99.90
57390;DHT22;43217;52.694;6.214;2023-04-21T01:19:02;9.10;99.90
57390;DHT22;43217;52.694;6.214;2023-04-21T01:21:38;9.10;99.90
57390;DHT22;43217;52.694;6.214;2023-04-21T01:24:05;9.10;99.90
57390;DHT22;43217;52.694;6.214;2023-04-21T01:26:31;9.10;99.90
57390;DHT22;43217;52.694;6.214;2023-04-21T01:28:56;9.10;99.90
57390;DHT22;43217;52.694;6.214;2023-04-21T01:31:22;9.10;99.90
57390;DHT22;43217;52.694;6.214;2023-04-21T01:33:48;9.10;99.90
57390;DHT22;43217;52.694;6.214;2023-04-21T01:36:14;9.10;99.90
57390;DHT22;43217;52.694;6.214;2023-04-21T01:38:40;9.20;99.90
57390;DHT22;43217;52.694;6.214;2023-04-21T01:41:06;9.20;99.90
57390;DHT22;43217;52.694;6.214;2023-04-21T01:43:32;9.20;99.90
57390;DHT22;43217;52.694;6.214;2023-04-21T01:45:58;9.20;99.90
57390;DHT22;43217;52.694;6.214;2023-04-21T01:48:24;9.30;99.90
57390;DHT22;43217;52.694;6.214;2023-04-21T01:50:49;9.30;99.90
57390;DHT22;43217;52.694;6.214;2023-04-21T01:53:15;9.30;99.90
57390;DHT22;43217;52.694;6.214;2023-04-21T01:55:40;9.30;99.90
57390;DHT22;43217;52.694;6.214;2023-04-21T01:58:06;9.20;99.90
57390;DHT22;43217;52.694;6.214;2023-04-21T02:00:32;9.30;99.90
57390;DHT22;43217;52.694;6.214;2023-04-21T02:02:57;9.30;99.90
57390;DHT22;43217;52.694;6.214;2023-04-21T02:05:23;9.30;99.90
57390;DHT22;43217;52.694;6.214;2023-04-21T02:07:48;9.30;99.90
57390;DHT22;43217;52.694;6.214;2023-04-21T02:10:14;9.30;99.90
57390;DHT22;43217;52.694;6.214;2023-04-21T02:12:40;9.40;99.90
57390;DHT22;43217;52.694;6.214;2023-04-21T02:15:06;9.40;99.90
57390;DHT22;43217;52.694;6.214;2023-04-21T02:17:32;9.40;99.90
57390;DHT22;43217;52.694;6.214;2023-04-21T02:19:58;9.40;99.90
57390;DHT22;43217;52.694;6.214;2023-04-21T02:22:23;9.40;99.90
57390;DHT22;43217;52.694;6.214;2023-04-21T02:24:49;9.40;99.90
57390;DHT22;43217;52.694;6.214;2023-04-21T02:27:15;9.40;99.90
57390;DHT22;43217;52.694;6.214;2023-04-21T02:29:41;9.50;99.90
57390;DHT22;43217;52.694;6.214;2023-04-21T02:32:07;9.50;99.90
57390;DHT22;43217;52.694;6.214;2023-04-21T02:34:32;9.50;99.90
57390;DHT22;43217;52.694;6.214;2023-04-21T02:36:58;9.50;99.90
57390;DHT22;43217;52.694;6.214;2023-04-21T02:39:24;9.50;99.90
57390;DHT22;43217;52.694;6.214;2023-04-21T02:41:50;9.50;99.90
57390;DHT22;43217;52.694;6.214;2023-04-21T02:44:15;9.50;99.90
57390;DHT22;43217;52.694;6.214;2023-04-21T02:46:41;9.50;99.90
57390;DHT22;43217;52.694;6.214;2023-04-21T02:49:07;9.50;99.90
57390;DHT22;43217;52.694;6.214;2023-04-21T02:51:33;9.50;99.90
57390;DHT22;43217;52.694;6.214;2023-04-21T02:53:58;9.50;99.90
57390;DHT22;43217;52.694;6.214;2023-04-21T02:56:25;9.50;99.90
57390;DHT22;43217;52.694;6.214;2023-04-21T02:58:50;9.50;99.90
57390;DHT22;43217;52.694;6.214;2023-04-21T03:01:16;9.50;99.90
57390;DHT22;43217;52.694;6.214;2023-04-21T03:03:42;9.50;99.90
57390;DHT22;43217;52.694;6.214;2023-04-21T03:06:07;9.50;99.90
57390;DHT22;43217;52.694;6.214;2023-04-21T03:08:33;9.50;99.90
57390;DHT22;43217;52.694;6.214;2023-04-21T03:10:59;9.50;99.90
57390;DHT22;43217;52.694;6.214;2023-04-21T03:13:25;9.40;99.90
57390;DHT22;43217;52.694;6.214;2023-04-21T03:15:51;9.40;99.90
57390;DHT22;43217;52.694;6.214;2023-04-21T03:18:16;9.50;99.90
57390;DHT22;43217;52.694;6.214;2023-04-21T03:20:42;9.50;99.90
57390;DHT22;43217;52.694;6.214;2023-04-21T03:23:08;9.40;99.90
57390;DHT22;43217;52.694;6.214;2023-04-21T03:25:34;9.40;99.90
57390;DHT22;43217;52.694;6.214;2023-04-21T03:28:00;9.40;99.90
57390;DHT22;43217;52.694;6.214;2023-04-21T03:30:25;9.40;99.90
57390;DHT22;43217;52.694;6.214;2023-04-21T03:32:51;9.40;99.90
57390;DHT22;43217;52.694;6.214;2023-04-21T03:35:17;9.40;99.90
57390;DHT22;43217;52.694;6.214;2023-04-21T03:37:43;9.50;99.90
57390;DHT22;43217;52.694;6.214;2023-04-21T03:40:10;9.50;99.90
57390;DHT22;43217;52.694;6.214;2023-04-21T03:42:36;9.50;99.90
57390;DHT22;43217;52.694;6.214;2023-04-21T03:45:08;9.50;99.90
57390;DHT22;43217;52.694;6.214;2023-04-21T03:47:35;9.60;99.90
57390;DHT22;43217;52.694;6.214;2023-04-21T03:50:03;9.60;99.90
57390;DHT22;43217;52.694;6.214;2023-04-21T03:52:30;9.60;99.90
57390;DHT22;43217;52.694;6.214;2023-04-21T03:54:55;9.60;99.90
57390;DHT22;43217;52.694;6.214;2023-04-21T03:57:21;9.60;99.90
57390;DHT22;43217;52.694;6.214;2023-04-21T03:59:46;9.60;99.90
57390;DHT22;43217;52.694;6.214;2023-04-21T04:02:12;9.60;99.90
57390;DHT22;43217;52.694;6.214;2023-04-21T04:04:38;9.70;99.90
57390;DHT22;43217;52.694;6.214;2023-04-21T04:07:03;9.60;99.90
57390;DHT22;43217;52.694;6.214;2023-04-21T04:09:32;9.60;99.90
57390;DHT22;43217;52.694;6.214;2023-04-21T04:11:57;9.60;99.90
57390;DHT22;43217;52.694;6.214;2023-04-21T04:14:23;9.60;99.90
57390;DHT22;43217;52.694;6.214;2023-04-21T04:16:49;9.60;99.90
57390;DHT22;43217;52.694;6.214;2023-04-21T04:19:15;9.60;99.90
57390;DHT22;43217;52.694;6.214;2023-04-21T04:21:40;9.60;99.90
57390;DHT22;43217;52.694;6.214;2023-04-21T04:24:06;9.60;99.90
57390;DHT22;43217;52.694;6.214;2023-04-21T04:26:33;9.60;99.90
57390;DHT22;43217;52.694;6.214;2023-04-21T04:28:59;9.60;99.90
57390;DHT22;43217;52.694;6.214;2023-04-21T04:31:28;9.60;99.90
57390;DHT22;43217;52.694;6.214;2023-04-21T04:33:55;9.50;99.90
57390;DHT22;43217;52.694;6.214;2023-04-21T04:36:20;9.60;99.90
57390;DHT22;43217;52.694;6.214;2023-04-21T04:38:47;9.60;99.90
57390;DHT22;43217;52.694;6.214;2023-04-21T04:41:12;9.60;99.90
57390;DHT22;43217;52.694;6.214;2023-04-21T04:43:40;9.60;99.90
57390;DHT22;43217;52.694;6.214;2023-04-21T04:46:06;9.60;99.90
57390;DHT22;43217;52.694;6.214;2023-04-21T04:48:33;9.70;99.90
57390;DHT22;43217;52.694;6.214;2023-04-21T04:50:59;9.70;99.90
57390;DHT22;43217;52.694;6.214;2023-04-21T04:53:27;9.70;99.90
57390;DHT22;43217;52.694;6.214;2023-04-21T04:55:52;9.70;99.90
57390;DHT22;43217;52.694;6.214;2023-04-21T04:58:18;9.80;99.90
57390;DHT22;43217;52.694;6.214;2023-04-21T05:00:43;9.80;99.90
57390;DHT22;43217;52.694;6.214;2023-04-21T05:03:09;9.80;99.90
57390;DHT22;43217;52.694;6.214;2023-04-21T05:05:35;9.80;99.90
57390;DHT22;43217;52.694;6.214;2023-04-21T05:08:00;9.90;99.90
57390;DHT22;43217;52.694;6.214;2023-04-21T05:10:26;10.00;99.90
57390;DHT22;43217;52.694;6.214;2023-04-21T05:12:52;10.10;99.90
57390;DHT22;43217;52.694;6.214;2023-04-21T05:15:17;10.20;99.90
57390;DHT22;43217;52.694;6.214;2023-04-21T05:17:43;10.20;99.90
57390;DHT22;43217;52.694;6.214;2023-04-21T05:20:08;10.30;99.90
57390;DHT22;43217;52.694;6.214;2023-04-21T05:22:37;10.40;99.90
57390;DHT22;43217;52.694;6.214;2023-04-21T05:25:04;10.60;99.90
57390;DHT22;43217;52.694;6.214;2023-04-21T05:27:30;10.70;99.90
57390;DHT22;43217;52.694;6.214;2023-04-21T05:29:55;10.70;99.90
57390;DHT22;43217;52.694;6.214;2023-04-21T05:32:21;10.60;99.90
57390;DHT22;43217;52.694;6.214;2023-04-21T05:34:47;10.50;99.90
57390;DHT22;43217;52.694;6.214;2023-04-21T05:37:12;10.40;99.90
57390;DHT22;43217;52.694;6.214;2023-04-21T05:39:38;10.40;99.90
57390;DHT22;43217;52.694;6.214;2023-04-21T05:42:04;10.40;99.90
57390;DHT22;43217;52.694;6.214;2023-04-21T05:44:31;10.50;99.90
57390;DHT22;43217;52.694;6.214;2023-04-21T05:46:56;10.50;99.90
57390;DHT22;43217;52.694;6.214;2023-04-21T05:49:22;10.60;99.90
57390;DHT22;43217;52.694;6.214;2023-04-21T05:51:47;10.70;99.90
57390;DHT22;43217;52.694;6.214;2023-04-21T05:54:13;10.80;99.90
57390;DHT22;43217;52.694;6.214;2023-04-21T05:56:39;10.90;99.90
57390;DHT22;43217;52.694;6.214;2023-04-21T05:59:04;11.00;99.90
57390;DHT22;43217;52.694;6.214;2023-04-21T06:01:31;10.90;99.90
57390;DHT22;43217;52.694;6.214;2023-04-21T06:03:57;10.90;99.90
57390;DHT22;43217;52.694;6.214;2023-04-21T06:06:25;10.90;99.90
57390;DHT22;43217;52.694;6.214;2023-04-21T06:08:52;11.00;99.90
57390;DHT22;43217;52.694;6.214;2023-04-21T06:11:17;11.20;99.90
57390;DHT22;43217;52.694;6.214;2023-04-21T06:13:43;11.30;99.90
57390;DHT22;43217;52.694;6.214;2023-04-21T06:16:09;11.20;99.90
57390;DHT22;43217;52.694;6.214;2023-04-21T06:18:34;11.00;99.90
57390;DHT22;43217;52.694;6.214;2023-04-21T06:21:00;10.90;99.90
57390;DHT22;43217;52.694;6.214;2023-04-21T06:23:26;10.80;99.90
57390;DHT22;43217;52.694;6.214;2023-04-21T06:26:07;10.70;99.90
57390;DHT22;43217;52.694;6.214;2023-04-21T06:28:35;10.60;99.90
57390;DHT22;43217;52.694;6.214;2023-04-21T06:31:02;10.60;99.90
57390;DHT22;43217;52.694;6.214;2023-04-21T06:33:28;10.60;99.90
57390;DHT22;43217;52.694;6.214;2023-04-21T06:35:54;10.60;99.90
57390;DHT22;43217;52.694;6.214;2023-04-21T06:38:20;10.60;99.90
57390;DHT22;43217;52.694;6.214;2023-04-21T06:40:45;10.60;99.90
57390;DHT22;43217;52.694;6.214;2023-04-21T06:43:11;10.60;99.90
57390;DHT22;43217;52.694;6.214;2023-04-21T06:45:36;10.70;99.90
57390;DHT22;43217;52.694;6.214;2023-04-21T06:48:02;10.60;99.90
57390;DHT22;43217;52.694;6.214;2023-04-21T06:50:28;10.60;99.90
57390;DHT22;43217;52.694;6.214;2023-04-21T06:52:53;10.60;99.90
57390;DHT22;43217;52.694;6.214;2023-04-21T06:55:19;10.70;99.90
57390;DHT22;43217;52.694;6.214;2023-04-21T06:57:45;10.70;99.90
57390;DHT22;43217;52.694;6.214;2023-04-21T07:00:11;10.80;99.90
57390;DHT22;43217;52.694;6.214;2023-04-21T07:02:36;10.80;99.90
57390;DHT22;43217;52.694;6.214;2023-04-21T07:05:02;10.80;99.90
57390;DHT22;43217;52.694;6.214;2023-04-21T07:07:28;10.90;99.90
57390;DHT22;43217;52.694;6.214;2023-04-21T07:09:54;10.90;99.90
57390;DHT22;43217;52.694;6.214;2023-04-21T07:12:20;10.90;99.90
57390;DHT22;43217;52.694;6.214;2023-04-21T07:14:45;11.00;99.90
57390;DHT22;43217;52.694;6.214;2023-04-21T07:17:11;11.10;99.90
57390;DHT22;43217;52.694;6.214;2023-04-21T07:19:37;11.20;99.90
57390;DHT22;43217;52.694;6.214;2023-04-21T07:22:03;11.30;99.90
57390;DHT22;43217;52.694;6.214;2023-04-21T07:24:29;11.40;99.90
57390;DHT22;43217;52.694;6.214;2023-04-21T07:26:55;11.50;99.90
57390;DHT22;43217;52.694;6.214;2023-04-21T07:29:20;11.60;99.90
57390;DHT22;43217;52.694;6.214;2023-04-21T07:31:46;11.80;99.90
57390;DHT22;43217;52.694;6.214;2023-04-21T07:34:14;12.00;99.90
57390;DHT22;43217;52.694;6.214;2023-04-21T07:36:40;12.20;99.90
57390;DHT22;43217;52.694;6.214;2023-04-21T07:39:06;12.40;99.90
57390;DHT22;43217;52.694;6.214;2023-04-21T07:41:32;12.60;99.90
57390;DHT22;43217;52.694;6.214;2023-04-21T07:43:57;12.80;99.90
57390;DHT22;43217;52.694;6.214;2023-04-21T07:46:23;13.10;99.90
57390;DHT22;43217;52.694;6.214;2023-04-21T07:48:55;13.20;99.90
57390;DHT22;43217;52.694;6.214;2023-04-21T07:51:22;13.10;99.90
57390;DHT22;43217;52.694;6.214;2023-04-21T07:53:48;13.20;99.90
57390;DHT22;43217;52.694;6.214;2023-04-21T07:56:13;13.60;99.90
57390;DHT22;43217;52.694;6.214;2023-04-21T07:58:39;13.80;99.90
57390;DHT22;43217;52.694;6.214;2023-04-21T08:01:04;13.80;99.90
57390;DHT22;43217;52.694;6.214;2023-04-21T08:03:30;13.70;99.90
57390;DHT22;43217;52.694;6.214;2023-04-21T08:05:56;13.50;99.90
57390;DHT22;43217;52.694;6.214;2023-04-21T08:08:21;13.30;99.90
57390;DHT22;43217;52.694;6.214;2023-04-21T08:10:47;13.10;99.90
57390;DHT22;43217;52.694;6.214;2023-04-21T08:13:13;13.10;99.90
57390;DHT22;43217;52.694;6.214;2023-04-21T08:15:38;13.10;99.90
57390;DHT22;43217;52.694;6.214;2023-04-21T08:18:04;13.20;99.90
57390;DHT22;43217;52.694;6.214;2023-04-21T08:20:30;13.30;99.90
57390;DHT22;43217;52.694;6.214;2023-04-21T08:22:56;13.40;99.90
57390;DHT22;43217;52.694;6.214;2023-04-21T08:25:22;13.30;99.90
57390;DHT22;43217;52.694;6.214;2023-04-21T08:27:53;13.30;99.90
57390;DHT22;43217;52.694;6.214;2023-04-21T08:30:19;13.30;99.90
57390;DHT22;43217;52.694;6.214;2023-04-21T08:32:44;13.50;99.90
57390;DHT22;43217;52.694;6.214;2023-04-21T08:35:10;14.10;99.90
57390;DHT22;43217;52.694;6.214;2023-04-21T08:37:37;14.80;99.90
57390;DHT22;43217;52.694;6.214;2023-04-21T08:40:06;15.40;99.90
57390;DHT22;43217;52.694;6.214;2023-04-21T08:42:33;16.20;99.90
57390;DHT22;43217;52.694;6.214;2023-04-21T08:44:59;16.90;99.90
57390;DHT22;43217;52.694;6.214;2023-04-21T08:47:26;17.20;99.90
57390;DHT22;43217;52.694;6.214;2023-04-21T08:49:53;17.30;99.90
57390;DHT22;43217;52.694;6.214;2023-04-21T08:52:19;17.20;99.90
57390;DHT22;43217;52.694;6.214;2023-04-21T08:54:45;16.90;99.90
57390;DHT22;43217;52.694;6.214;2023-04-21T08:57:11;16.70;99.90
57390;DHT22;43217;52.694;6.214;2023-04-21T08:59:37;16.20;99.90
57390;DHT22;43217;52.694;6.214;2023-04-21T09:02:15;15.80;99.90
57390;DHT22;43217;52.694;6.214;2023-04-21T09:04:43;15.60;99.90
57390;DHT22;43217;52.694;6.214;2023-04-21T09:07:09;15.50;99.90
57390;DHT22;43217;52.694;6.214;2023-04-21T09:12:17;15.70;99.90
57390;DHT22;43217;52.694;6.214;2023-04-21T09:14:43;15.80;99.90
57390;DHT22;43217;52.694;6.214;2023-04-21T09:17:09;15.90;99.90
57390;DHT22;43217;52.694;6.214;2023-04-21T09:19:35;15.90;99.90
57390;DHT22;43217;52.694;6.214;2023-04-21T09:22:02;16.00;99.90
57390;DHT22;43217;52.694;6.214;2023-04-21T09:24:28;16.10;99.90
57390;DHT22;43217;52.694;6.214;2023-04-21T09:26:54;15.90;99.90
57390;DHT22;43217;52.694;6.214;2023-04-21T09:29:24;15.70;99.90
57390;DHT22;43217;52.694;6.214;2023-04-21T09:31:51;15.60;99.90
57390;DHT22;43217;52.694;6.214;2023-04-21T09:34:22;15.50;99.90
57390;DHT22;43217;52.694;6.214;2023-04-21T09:37:02;15.40;99.90
57390;DHT22;43217;52.694;6.214;2023-04-21T09:39:28;15.40;99.90
57390;DHT22;43217;52.694;6.214;2023-04-21T09:41:55;15.50;99.90
57390;DHT22;43217;52.694;6.214;2023-04-21T09:44:22;15.60;99.90
57390;DHT22;43217;52.694;6.214;2023-04-21T09:46:48;15.50;99.90
57390;DHT22;43217;52.694;6.214;2023-04-21T09:49:16;15.50;99.90
57390;DHT22;43217;52.694;6.214;2023-04-21T09:51:42;15.40;99.90
57390;DHT22;43217;52.694;6.214;2023-04-21T09:54:30;15.40;99.90
57390;DHT22;43217;52.694;6.214;2023-04-21T09:56:58;15.60;99.90
57390;DHT22;43217;52.694;6.214;2023-04-21T09:59:29;15.70;99.90
57390;DHT22;43217;52.694;6.214;2023-04-21T10:01:57;15.70;99.90
57390;DHT22;43217;52.694;6.214;2023-04-21T10:04:24;15.80;99.90
57390;DHT22;43217;52.694;6.214;2023-04-21T10:06:50;15.80;99.90
57390;DHT22;43217;52.694;6.214;2023-04-21T10:09:18;15.90;99.90
57390;DHT22;43217;52.694;6.214;2023-04-21T10:11:46;16.00;99.90
57390;DHT22;43217;52.694;6.214;2023-04-21T10:14:12;16.00;99.90
57390;DHT22;43217;52.694;6.214;2023-04-21T10:16:37;16.00;99.90
57390;DHT22;43217;52.694;6.214;2023-04-21T10:19:22;16.00;99.90
57390;DHT22;43217;52.694;6.214;2023-04-21T10:21:49;15.90;99.90
57390;DHT22;43217;52.694;6.214;2023-04-21T10:24:15;15.80;99.90
57390;DHT22;43217;52.694;6.214;2023-04-21T10:26:41;15.80;99.90
57390;DHT22;43217;52.694;6.214;2023-04-21T10:29:07;15.80;99.90
57390;DHT22;43217;52.694;6.214;2023-04-21T10:31:51;15.70;99.90
57390;DHT22;43217;52.694;6.214;2023-04-21T10:34:19;15.80;99.90
57390;DHT22;43217;52.694;6.214;2023-04-21T10:39:24;15.80;99.90
57390;DHT22;43217;52.694;6.214;2023-04-21T10:41:51;15.80;99.90
57390;DHT22;43217;52.694;6.214;2023-04-21T10:44:20;15.80;99.90
57390;DHT22;43217;52.694;6.214;2023-04-21T10:46:48;15.70;99.90
57390;DHT22;43217;52.694;6.214;2023-04-21T10:49:22;15.70;99.90
57390;DHT22;43217;52.694;6.214;2023-04-21T10:54:23;15.50;99.90
57390;DHT22;43217;52.694;6.214;2023-04-21T10:56:54;15.40;99.90
57390;DHT22;43217;52.694;6.214;2023-04-21T10:59:21;15.50;99.90
57390;DHT22;43217;52.694;6.214;2023-04-21T11:01:47;15.50;99.90
57390;DHT22;43217;52.694;6.214;2023-04-21T11:04:16;15.50;99.90
57390;DHT22;43217;52.694;6.214;2023-04-21T11:06:43;15.50;99.90
57390;DHT22;43217;52.694;6.214;2023-04-21T11:09:08;15.50;99.90
57390;DHT22;43217;52.694;6.214;2023-04-21T11:11:35;15.60;99.90
57390;DHT22;43217;52.694;6.214;2023-04-21T11:14:01;15.60;99.90
57390;DHT22;43217;52.694;6.214;2023-04-21T11:16:27;15.60;99.90
57390;DHT22;43217;52.694;6.214;2023-04-21T11:18:55;15.70;99.90
57390;DHT22;43217;52.694;6.214;2023-04-21T11:21:21;15.80;99.90
57390;DHT22;43217;52.694;6.214;2023-04-21T11:23:57;15.80;99.90
57390;DHT22;43217;52.694;6.214;2023-04-21T11:26:31;15.90;99.90
57390;DHT22;43217;52.694;6.214;2023-04-21T11:29:00;15.90;99.90
57390;DHT22;43217;52.694;6.214;2023-04-21T11:31:29;15.90;99.90
57390;DHT22;43217;52.694;6.214;2023-04-21T11:33:55;15.90;99.90
57390;DHT22;43217;52.694;6.214;2023-04-21T11:36:22;15.90;99.90
57390;DHT22;43217;52.694;6.214;2023-04-21T11:38:52;15.90;99.90
57390;DHT22;43217;52.694;6.214;2023-04-21T11:41:22;15.90;99.90
57390;DHT22;43217;52.694;6.214;2023-04-21T11:43:51;15.90;99.90
57390;DHT22;43217;52.694;6.214;2023-04-21T11:46:22;16.00;99.90
57390;DHT22;43217;52.694;6.214;2023-04-21T11:49:11;16.10;99.90
57390;DHT22;43217;52.694;6.214;2023-04-21T11:51:42;16.30;99.90
57390;DHT22;43217;52.694;6.214;2023-04-21T11:54:12;16.40;99.90
57390;DHT22;43217;52.694;6.214;2023-04-21T11:56:39;16.60;99.90
57390;DHT22;43217;52.694;6.214;2023-04-21T11:59:15;16.70;99.90
57390;DHT22;43217;52.694;6.214;2023-04-21T12:01:45;16.80;99.90
57390;DHT22;43217;52.694;6.214;2023-04-21T12:04:15;16.90;99.90
57390;DHT22;43217;52.694;6.214;2023-04-21T12:06:43;16.90;99.90
57390;DHT22;43217;52.694;6.214;2023-04-21T12:09:16;16.90;99.90
57390;DHT22;43217;52.694;6.214;2023-04-21T12:11:42;17.00;99.90
57390;DHT22;43217;52.694;6.214;2023-04-21T12:14:07;16.90;99.90
57390;DHT22;43217;52.694;6.214;2023-04-21T12:16:36;16.90;99.90
57390;DHT22;43217;52.694;6.214;2023-04-21T12:19:02;17.00;99.90
57390;DHT22;43217;52.694;6.214;2023-04-21T12:21:28;17.10;99.90
57390;DHT22;43217;52.694;6.214;2023-04-21T12:23:53;17.20;99.90
57390;DHT22;43217;52.694;6.214;2023-04-21T12:26:20;17.20;99.90
57390;DHT22;43217;52.694;6.214;2023-04-21T12:28:46;17.20;99.90
57390;DHT22;43217;52.694;6.214;2023-04-21T12:31:12;17.20;99.90
57390;DHT22;43217;52.694;6.214;2023-04-21T12:33:38;17.30;99.90
57390;DHT22;43217;52.694;6.214;2023-04-21T12:36:04;17.30;99.90
57390;DHT22;43217;52.694;6.214;2023-04-21T12:38:30;17.40;99.90
57390;DHT22;43217;52.694;6.214;2023-04-21T12:40:56;17.50;99.90
57390;DHT22;43217;52.694;6.214;2023-04-21T12:43:22;17.50;99.90
57390;DHT22;43217;52.694;6.214;2023-04-21T12:45:48;17.60;99.90
57390;DHT22;43217;52.694;6.214;2023-04-21T12:48:13;17.60;99.90
57390;DHT22;43217;52.694;6.214;2023-04-21T12:50:40;17.40;99.90
57390;DHT22;43217;52.694;6.214;2023-04-21T12:53:06;17.40;99.90
57390;DHT22;43217;52.694;6.214;2023-04-21T12:55:33;17.40;99.90
57390;DHT22;43217;52.694;6.214;2023-04-21T12:58:00;17.30;99.90
57390;DHT22;43217;52.694;6.214;2023-04-21T13:00:26;17.30;99.90
57390;DHT22;43217;52.694;6.214;2023-04-21T13:02:52;17.30;99.90
57390;DHT22;43217;52.694;6.214;2023-04-21T13:05:18;17.30;99.90
57390;DHT22;43217;52.694;6.214;2023-04-21T13:07:44;17.30;99.90
57390;DHT22;43217;52.694;6.214;2023-04-21T13:10:10;17.30;99.90
57390;DHT22;43217;52.694;6.214;2023-04-21T13:12:36;17.40;99.90
57390;DHT22;43217;52.694;6.214;2023-04-21T13:15:01;17.40;99.90
57390;DHT22;43217;52.694;6.214;2023-04-21T13:17:27;17.50;99.90
57390;DHT22;43217;52.694;6.214;2023-04-21T13:19:53;17.60;99.90
57390;DHT22;43217;52.694;6.214;2023-04-21T13:22:18;17.80;99.90
57390;DHT22;43217;52.694;6.214;2023-04-21T13:24:44;17.90;99.90
57390;DHT22;43217;52.694;6.214;2023-04-21T13:27:10;17.90;99.90
57390;DHT22;43217;52.694;6.214;2023-04-21T13:29:35;18.00;99.90
57390;DHT22;43217;52.694;6.214;2023-04-21T13:32:03;18.10;99.90
57390;DHT22;43217;52.694;6.214;2023-04-21T13:34:29;18.20;99.90
57390;DHT22;43217;52.694;6.214;2023-04-21T13:36:55;18.20;99.90
57390;DHT22;43217;52.694;6.214;2023-04-21T13:39:20;18.20;99.90
57390;DHT22;43217;52.694;6.214;2023-04-21T13:41:47;18.30;99.90
57390;DHT22;43217;52.694;6.214;2023-04-21T13:44:14;18.30;99.90
57390;DHT22;43217;52.694;6.214;2023-04-21T13:46:41;18.30;99.90
57390;DHT22;43217;52.694;6.214;2023-04-21T13:49:07;18.30;99.90
57390;DHT22;43217;52.694;6.214;2023-04-21T13:51:32;18.30;99.90
57390;DHT22;43217;52.694;6.214;2023-04-21T13:53:58;18.40;98.80
57390;DHT22;43217;52.694;6.214;2023-04-21T13:56:24;18.30;98.30
57390;DHT22;43217;52.694;6.214;2023-04-21T13:58:49;18.30;97.50
57390;DHT22;43217;52.694;6.214;2023-04-21T14:01:15;18.20;97.00
57390;DHT22;43217;52.694;6.214;2023-04-21T14:03:41;18.20;96.80
57390;DHT22;43217;52.694;6.214;2023-04-21T14:06:07;18.30;96.40
57390;DHT22;43217;52.694;6.214;2023-04-21T14:08:32;18.20;96.40
57390;DHT22;43217;52.694;6.214;2023-04-21T14:10:58;18.20;96.70
57390;DHT22;43217;52.694;6.214;2023-04-21T14:13:24;18.10;97.00
57390;DHT22;43217;52.694;6.214;2023-04-21T14:15:54;18.10;97.20
57390;DHT22;43217;52.694;6.214;2023-04-21T14:18:20;18.10;97.20
57390;DHT22;43217;52.694;6.214;2023-04-21T14:20:45;18.10;97.60
57390;DHT22;43217;52.694;6.214;2023-04-21T14:23:11;18.00;97.30
57390;DHT22;43217;52.694;6.214;2023-04-21T14:25:37;18.00;97.20
57390;DHT22;43217;52.694;6.214;2023-04-21T14:28:02;17.90;97.20
57390;DHT22;43217;52.694;6.214;2023-04-21T14:30:32;17.90;97.90
57390;DHT22;43217;52.694;6.214;2023-04-21T14:32:57;17.90;97.80
57390;DHT22;43217;52.694;6.214;2023-04-21T14:35:23;17.80;98.20
57390;DHT22;43217;52.694;6.214;2023-04-21T14:37:49;17.80;98.20
57390;DHT22;43217;52.694;6.214;2023-04-21T14:40:14;17.80;98.40
57390;DHT22;43217;52.694;6.214;2023-04-21T14:42:40;17.80;98.70
57390;DHT22;43217;52.694;6.214;2023-04-21T14:45:06;17.70;99.60
57390;DHT22;43217;52.694;6.214;2023-04-21T14:47:32;17.70;99.90
57390;DHT22;43217;52.694;6.214;2023-04-21T14:50:00;17.80;99.90
57390;DHT22;43217;52.694;6.214;2023-04-21T14:52:32;17.80;99.90
57390;DHT22;43217;52.694;6.214;2023-04-21T14:54:57;17.80;99.90
57390;DHT22;43217;52.694;6.214;2023-04-21T14:57:24;17.90;99.90
57390;DHT22;43217;52.694;6.214;2023-04-21T14:59:52;18.00;99.90
57390;DHT22;43217;52.694;6.214;2023-04-21T15:02:19;18.00;99.90
57390;DHT22;43217;52.694;6.214;2023-04-21T15:04:45;18.10;98.60
57390;DHT22;43217;52.694;6.214;2023-04-21T15:07:10;18.10;98.00
57390;DHT22;43217;52.694;6.214;2023-04-21T15:09:36;18.20;97.20
57390;DHT22;43217;52.694;6.214;2023-04-21T15:12:03;18.20;96.40
57390;DHT22;43217;52.694;6.214;2023-04-21T15:14:29;18.20;96.50
57390;DHT22;43217;52.694;6.214;2023-04-21T15:16:55;18.20;94.90
57390;DHT22;43217;52.694;6.214;2023-04-21T15:19:20;18.30;94.80
57390;DHT22;43217;52.694;6.214;2023-04-21T15:21:46;18.30;93.70
57390;DHT22;43217;52.694;6.214;2023-04-21T15:24:12;18.30;93.80
57390;DHT22;43217;52.694;6.214;2023-04-21T15:26:38;18.40;93.50
57390;DHT22;43217;52.694;6.214;2023-04-21T15:29:03;18.40;93.30
57390;DHT22;43217;52.694;6.214;2023-04-21T15:31:29;18.40;92.80
57390;DHT22;43217;52.694;6.214;2023-04-21T15:33:56;18.40;92.00
57390;DHT22;43217;52.694;6.214;2023-04-21T15:36:21;18.40;92.60
57390;DHT22;43217;52.694;6.214;2023-04-21T15:38:47;18.30;91.30